Terminal Aerodrome Forecast
Issued by NWS Cleveland, OH

Home | Current Version | Previous Version | Graphics & Text | Print | Product List | Glossary On
Versions: 1 2 3 4 5 6 7 8 9 10 11 12 13 14 15 16
000
FTUS41 KCLE 151300 AAA
TAFTOL
TAF AMD
KTOL 151356Z 1514/1612 32011G18KT P6SM BKN020 OVC060
     FM151700 31015G25KT P6SM SCT025 BKN050
     FM152000 31018G28KT P6SM SCT035 BKN060
     FM160000 31011KT P6SM SCT250
     FM160300 30003KT P6SM SKC=

USA.gov is the U.S. government's official web portal to all federal, state and local government web resources and services.